createdAt,value
2023-02-28T00:00:49.388Z,62.13
2023-02-28T00:05:50.799Z,61.96
2023-02-28T00:10:52.223Z,62.26
2023-02-28T00:16:05.602Z,62.26
2023-02-28T00:21:07.664Z,62.25
2023-02-28T00:26:09.120Z,61.93
2023-02-28T00:31:10.610Z,61.87
2023-02-28T00:36:12.808Z,61.70
2023-02-28T00:41:14.287Z,60.00
2023-02-28T00:46:15.772Z,59.82
2023-02-28T00:51:17.229Z,60.74
2023-02-28T00:56:18.736Z,60.89
2023-02-28T01:01:20.208Z,60.98
2023-02-28T01:06:21.626Z,61.18
2023-02-28T01:11:24.187Z,60.78
2023-02-28T01:16:26.004Z,61.14
2023-02-28T01:21:27.863Z,61.51
2023-02-28T01:26:30.172Z,61.91
2023-02-28T01:31:31.913Z,61.64
2023-02-28T01:36:33.558Z,61.60
2023-02-28T01:41:35.952Z,61.91
2023-02-28T01:46:37.474Z,62.73
2023-02-28T01:51:51.377Z,62.62
2023-02-28T01:56:59.615Z,63.12
2023-02-28T02:02:02.303Z,63.11
2023-02-28T02:07:04.609Z,62.68
2023-02-28T02:12:27.801Z,62.39
2023-02-28T02:17:33.250Z,62.96
2023-02-28T02:22:59.064Z,62.93
2023-02-28T02:28:37.736Z,63.24
2023-02-28T02:34:20.328Z,63.64
2023-02-28T02:39:47.147Z,63.62
2023-02-28T02:44:55.064Z,64.07
2023-02-28T02:49:59.500Z,63.85
2023-02-28T02:55:03.124Z,64.10
2023-02-28T03:00:09.452Z,64.05
2023-02-28T03:05:24.832Z,64.10
2023-02-28T03:10:30.972Z,63.77
2023-02-28T03:15:49.812Z,63.42
2023-02-28T03:21:04.568Z,63.82
2023-02-28T03:26:19.832Z,64.57
2023-02-28T03:31:34.254Z,64.59
2023-02-28T03:36:45.343Z,64.05
2023-02-28T03:41:53.133Z,64.07
2023-02-28T03:47:01.856Z,63.67
2023-02-28T03:52:07.658Z,63.40
2023-02-28T03:57:23.987Z,63.84
2023-02-28T04:02:25.511Z,63.78
2023-02-28T04:07:30.602Z,64.04
2023-02-28T04:12:32.048Z,64.21
2023-02-28T04:17:33.473Z,64.00
2023-02-28T04:22:34.886Z,63.98
2023-02-28T04:27:36.367Z,64.49
2023-02-28T04:32:37.847Z,64.58
2023-02-28T04:37:39.278Z,64.49
2023-02-28T04:42:40.687Z,64.06
2023-02-28T04:47:42.103Z,64.11
2023-02-28T04:52:43.562Z,64.23
2023-02-28T04:57:45.078Z,64.09
2023-02-28T05:02:46.519Z,63.83
2023-02-28T05:07:47.928Z,63.25
2023-02-28T05:12:49.447Z,64.00
2023-02-28T05:17:51.037Z,63.96
2023-02-28T05:22:53.634Z,63.89
2023-02-28T05:27:55.090Z,64.18
2023-02-28T05:32:56.738Z,64.66
2023-02-28T05:37:58.333Z,63.90
2023-02-28T05:42:59.788Z,63.82
2023-02-28T05:48:01.420Z,62.97
2023-02-28T05:53:03.087Z,63.08
2023-02-28T05:58:04.962Z,63.44
2023-02-28T06:03:06.480Z,63.20
2023-02-28T06:08:08.266Z,63.00
2023-02-28T06:13:09.755Z,63.14
2023-02-28T06:18:11.198Z,63.11
2023-02-28T06:23:12.621Z,63.28
2023-02-28T06:28:14.101Z,63.05
2023-02-28T06:33:15.561Z,62.65
2023-02-28T06:38:17.015Z,61.70
2023-02-28T06:43:18.433Z,60.69
2023-02-28T06:48:20.001Z,59.68
2023-02-28T06:53:21.442Z,58.84
2023-02-28T06:58:22.894Z,58.27
2023-02-28T07:03:24.783Z,57.23
2023-02-28T07:08:27.770Z,56.97
2023-02-28T07:13:29.290Z,56.91
2023-02-28T07:18:31.035Z,56.14
2023-02-28T07:23:32.498Z,56.05
2023-02-28T07:28:34.353Z,54.72
2023-02-28T07:33:36.586Z,55.14
2023-02-28T07:38:38.488Z,53.89
2023-02-28T07:43:39.948Z,53.48
2023-02-28T07:48:42.082Z,52.92
2023-02-28T07:53:43.564Z,52.77
2023-02-28T07:58:44.988Z,53.00
2023-02-28T08:03:46.428Z,51.67
2023-02-28T08:08:48.385Z,50.72
2023-02-28T08:13:49.871Z,50.60
2023-02-28T08:18:53.016Z,49.99
2023-02-28T08:23:54.895Z,49.94
2023-02-28T08:28:57.494Z,49.25
2023-02-28T08:34:00.329Z,49.38
2023-02-28T08:39:02.271Z,49.60
2023-02-28T08:44:04.068Z,46.58
2023-02-28T08:49:05.555Z,49.04
2023-02-28T08:54:07.008Z,48.49
2023-02-28T08:59:10.223Z,45.68
2023-02-28T09:04:13.783Z,46.09
2023-02-28T09:09:17.285Z,46.62
2023-02-28T09:14:18.756Z,46.44
2023-02-28T09:19:20.237Z,45.93
2023-02-28T09:24:21.974Z,46.56
2023-02-28T09:29:23.513Z,46.00
2023-02-28T09:34:28.690Z,44.00
2023-02-28T09:39:30.148Z,46.09
2023-02-28T09:44:31.614Z,43.98
2023-02-28T09:49:40.298Z,45.33
2023-02-28T09:54:41.836Z,45.07
2023-02-28T10:00:01.697Z,44.08
2023-02-28T10:05:12.575Z,45.24
2023-02-28T10:10:43.544Z,44.15
2023-02-28T10:15:47.396Z,43.58
2023-02-28T10:20:50.444Z,44.24
2023-02-28T10:26:11.401Z,43.29
2023-02-28T10:31:18.472Z,44.31
2023-02-28T10:36:22.117Z,44.59
2023-02-28T10:41:37.399Z,45.04
2023-02-28T10:46:41.617Z,43.88
2023-02-28T10:51:43.160Z,44.31
2023-02-28T10:56:44.829Z,44.59
2023-02-28T11:01:49.985Z,44.16
2023-02-28T11:07:27.852Z,42.52
2023-02-28T11:12:47.246Z,43.54
2023-02-28T11:17:58.754Z,43.60
2023-02-28T11:23:03.334Z,43.28
2023-02-28T11:28:07.651Z,42.55
2023-02-28T11:33:21.761Z,44.35
2023-02-28T11:38:23.198Z,44.02
2023-02-28T11:43:46.947Z,44.22
2023-02-28T11:49:20.619Z,43.55
2023-02-28T11:54:30.111Z,45.03
2023-02-28T11:59:48.975Z,43.94
2023-02-28T12:05:11.697Z,44.78
2023-02-28T12:10:22.623Z,44.47
2023-02-28T12:15:32.923Z,44.41
2023-02-28T12:20:42.129Z,44.49
2023-02-28T12:25:49.189Z,44.81
2023-02-28T12:30:58.505Z,44.15
2023-02-28T12:36:05.969Z,44.07
2023-02-28T12:41:17.672Z,44.91
2023-02-28T12:46:25.178Z,43.91
2023-02-28T12:51:28.387Z,44.56
2023-02-28T12:57:07.552Z,44.68
2023-02-28T13:02:41.447Z,45.00
2023-02-28T13:08:08.823Z,44.94
2023-02-28T13:13:17.573Z,45.51
2023-02-28T13:18:31.527Z,45.03
2023-02-28T13:23:44.923Z,44.88
2023-02-28T13:28:54.605Z,45.27
2023-02-28T13:33:58.025Z,45.99
2023-02-28T13:39:02.892Z,45.93
2023-02-28T13:44:07.238Z,45.52
2023-02-28T13:49:27.453Z,45.71
2023-02-28T13:54:36.737Z,46.46
2023-02-28T14:00:13.145Z,46.79
2023-02-28T14:05:18.008Z,46.47
2023-02-28T14:10:43.850Z,46.63
2023-02-28T14:16:00.524Z,46.27
2023-02-28T14:21:15.235Z,46.63
2023-02-28T14:26:52.053Z,45.72
2023-02-28T14:31:59.372Z,46.70
2023-02-28T14:37:03.319Z,45.78
2023-02-28T14:42:25.030Z,46.20
2023-02-28T14:47:31.956Z,46.97
2023-02-28T14:52:34.035Z,46.88
2023-02-28T14:57:41.523Z,46.80
2023-02-28T15:02:43.916Z,47.80
2023-02-28T15:07:46.664Z,47.38
2023-02-28T15:13:01.188Z,46.80
2023-02-28T15:18:06.594Z,46.84
2023-02-28T15:23:08.512Z,47.50
2023-02-28T15:28:16.950Z,46.79
2023-02-28T15:33:20.773Z,47.99
2023-02-28T15:38:22.184Z,48.29
2023-02-28T15:43:34.915Z,48.47
2023-02-28T15:48:54.273Z,48.93
2023-02-28T15:53:59.747Z,48.75
2023-02-28T15:59:04.308Z,49.15
2023-02-28T16:04:19.143Z,49.57
2023-02-28T16:09:20.626Z,50.00
2023-02-28T16:14:26.004Z,50.37
2023-02-28T16:19:27.423Z,50.84
2023-02-28T16:24:29.049Z,51.49
2023-02-28T16:29:34.226Z,51.14
2023-02-28T16:34:35.671Z,51.53
2023-02-28T16:39:37.158Z,52.32
2023-02-28T16:44:38.611Z,52.33
2023-02-28T16:49:42.924Z,52.13
2023-02-28T16:54:44.396Z,52.92
2023-02-28T16:59:45.913Z,53.48
2023-02-28T17:04:47.497Z,54.00
2023-02-28T17:09:48.938Z,54.21
2023-02-28T17:14:50.362Z,54.79
2023-02-28T17:19:51.785Z,54.52
2023-02-28T17:24:56.661Z,55.06
2023-02-28T17:29:58.433Z,55.24
2023-02-28T17:34:59.861Z,54.90
2023-02-28T17:40:01.383Z,55.71
2023-02-28T17:45:03.020Z,56.54
2023-02-28T17:50:04.992Z,56.23
2023-02-28T17:55:06.779Z,56.28
2023-02-28T18:00:09.694Z,56.42
2023-02-28T18:05:12.222Z,57.27
2023-02-28T18:10:20.333Z,57.08
2023-02-28T18:15:22.756Z,57.01
2023-02-28T18:20:24.264Z,57.94
2023-02-28T18:25:27.491Z,57.20
2023-02-28T18:30:31.677Z,57.30
2023-02-28T18:35:36.067Z,57.26
2023-02-28T18:40:38.101Z,57.41
2023-02-28T18:45:39.620Z,57.68
2023-02-28T18:50:44.890Z,57.17
2023-02-28T18:55:46.385Z,57.83
2023-02-28T19:00:48.074Z,57.80
2023-02-28T19:05:50.738Z,58.08
2023-02-28T19:10:52.486Z,58.09
2023-02-28T19:16:02.179Z,58.04
2023-02-28T19:21:06.215Z,59.13
2023-02-28T19:26:20.252Z,59.39
2023-02-28T19:31:26.200Z,59.90
2023-02-28T19:36:28.490Z,59.82
2023-02-28T19:41:30.193Z,59.95
2023-02-28T19:46:31.776Z,60.28
2023-02-28T19:51:34.326Z,60.35
2023-02-28T19:56:35.809Z,60.70
2023-02-28T20:01:38.471Z,60.62
2023-02-28T20:06:40.067Z,60.75
2023-02-28T20:11:41.490Z,60.72
2023-02-28T20:16:43.843Z,61.54
2023-02-28T20:21:45.398Z,61.63
2023-02-28T20:26:46.824Z,62.04
2023-02-28T20:31:48.365Z,61.62
2023-02-28T20:36:49.900Z,61.66
2023-02-28T20:41:51.437Z,61.83
2023-02-28T20:46:52.852Z,62.13
2023-02-28T20:51:54.276Z,62.54
2023-02-28T20:56:55.911Z,62.75
2023-02-28T21:01:57.424Z,62.87
2023-02-28T21:06:59.016Z,63.13
2023-02-28T21:12:01.532Z,63.29
2023-02-28T21:17:03.083Z,63.55
2023-02-28T21:22:04.595Z,63.59
2023-02-28T21:27:06.125Z,64.22
2023-02-28T21:32:07.628Z,63.69
2023-02-28T21:37:10.886Z,63.96
2023-02-28T21:42:13.070Z,63.90
2023-02-28T21:47:14.537Z,64.45
2023-02-28T21:52:15.975Z,64.68
2023-02-28T21:57:17.508Z,64.73
2023-02-28T22:02:19.100Z,64.68
2023-02-28T22:07:20.606Z,64.62
2023-02-28T22:12:22.030Z,64.60
2023-02-28T22:17:23.514Z,65.04
2023-02-28T22:22:26.196Z,65.25
2023-02-28T22:27:27.682Z,65.85
2023-02-28T22:32:29.333Z,65.69
2023-02-28T22:37:30.846Z,65.77
2023-02-28T22:42:34.425Z,65.87
2023-02-28T22:47:35.885Z,65.65
2023-02-28T22:52:40.454Z,65.98
2023-02-28T22:57:41.933Z,66.01
2023-02-28T23:02:44.305Z,66.17
2023-02-28T23:07:46.039Z,65.96
2023-02-28T23:12:53.384Z,66.34
2023-02-28T23:17:54.881Z,66.12
2023-02-28T23:22:56.359Z,66.02
2023-02-28T23:27:57.828Z,66.05
2023-02-28T23:32:59.303Z,66.47
2023-02-28T23:38:00.871Z,66.63
2023-02-28T23:43:02.283Z,66.94
2023-02-28T23:48:04.511Z,66.97
2023-02-28T23:53:05.965Z,67.49
2023-02-28T23:58:07.392Z,67.58
